FRA weather

Frankfurt am Main Airport
Frankfurt am Main, Hesse, Germany

Public forecast

Using degrees Celsius for public forecast. Weather courtesy of forecast.io.

METAR (pilot weather report)

Retrieved 2017/08/17 03:20 UTC (0 seconds ago):

EDDF 170320Z 06004KT 9999 MIFG NSC 16/15 Q1018 NOSIG

TAF (pilot weather forecast)

Forecast is more than 12 hours old.

Retrieved 2017/08/16 00:27 UTC (1 day ago):

TAF TAF EDDF 162300Z 1700/1806 03004KT CAVOK PROB30 TEMPO 1700/1706 SHRA SCT040CB BECMG 1707/1710 22007KT PROB30 TEMPO 1715/1806 SHRA SCT040CB